52F weather

Public forecast

Using degrees Fahrenheit for public forecast. Weather courtesy of forecast.io.

Closest aviation weather report (METAR) to Northwest Regional Airport

Closest report is Fort Worth Alliance Airport, 5.7 nm (10.6 km) SW. Retrieved 2020/08/14 12:53 UTC (42 minutes ago):

KAFW 141253Z 20009KT 10SM FEW150 FEW250 29/20 A2987 RMK AO2 SLP096 T02890200

Closest aviation forecast (TAF) to Northwest Regional Airport

Closest forecast is Fort Worth Alliance Airport, 5.7 nm (10.6 km) SW. Retrieved 2020/08/14 12:22 UTC (1 hour ago):

TAF KAFW 141120Z 1412/1512 18011KT P6SM FEW150 FM141500 22015KT P6SM FEW060 FEW250 FM150100 17010KT P6SM FEW250